sensor_id;sensor_type;location;lat;lon;timestamp;P1;durP1;ratioP1;P2;durP2;ratioP2
11783;SDS011;5949;40.386;18.150;2022-07-23T00:02:11;0.10;;;0.10;;
11783;SDS011;5949;40.386;18.150;2022-07-23T00:04:39;0.00;;;0.00;;
11783;SDS011;5949;40.386;18.150;2022-07-23T00:07:07;0.00;;;0.00;;
11783;SDS011;5949;40.386;18.150;2022-07-23T00:09:34;0.03;;;0.03;;
11783;SDS011;5949;40.386;18.150;2022-07-23T00:12:02;0.10;;;0.10;;
11783;SDS011;5949;40.386;18.150;2022-07-23T00:14:30;0.10;;;0.10;;
11783;SDS011;5949;40.386;18.150;2022-07-23T00:16:58;0.00;;;0.00;;
11783;SDS011;5949;40.386;18.150;2022-07-23T00:19:27;0.00;;;0.00;;
11783;SDS011;5949;40.386;18.150;2022-07-23T00:21:55;0.00;;;0.00;;
11783;SDS011;5949;40.386;18.150;2022-07-23T00:24:23;0.10;;;0.10;;
11783;SDS011;5949;40.386;18.150;2022-07-23T00:26:51;0.00;;;0.00;;
11783;SDS011;5949;40.386;18.150;2022-07-23T00:29:18;0.00;;;0.00;;
11783;SDS011;5949;40.386;18.150;2022-07-23T00:31:46;0.10;;;0.10;;
11783;SDS011;5949;40.386;18.150;2022-07-23T00:34:13;0.00;;;0.00;;
11783;SDS011;5949;40.386;18.150;2022-07-23T00:36:42;0.20;;;0.20;;
11783;SDS011;5949;40.386;18.150;2022-07-23T00:39:10;0.00;;;0.00;;
11783;SDS011;5949;40.386;18.150;2022-07-23T00:41:38;0.10;;;0.10;;
11783;SDS011;5949;40.386;18.150;2022-07-23T00:44:15;0.03;;;0.03;;
11783;SDS011;5949;40.386;18.150;2022-07-23T00:46:45;0.00;;;0.00;;
11783;SDS011;5949;40.386;18.150;2022-07-23T00:49:13;0.00;;;0.00;;
11783;SDS011;5949;40.386;18.150;2022-07-23T00:51:42;0.10;;;0.10;;
11783;SDS011;5949;40.386;18.150;2022-07-23T00:54:10;0.00;;;0.00;;
11783;SDS011;5949;40.386;18.150;2022-07-23T00:56:37;0.00;;;0.00;;
11783;SDS011;5949;40.386;18.150;2022-07-23T00:59:06;0.70;;;0.40;;
11783;SDS011;5949;40.386;18.150;2022-07-23T01:01:33;0.20;;;0.20;;
11783;SDS011;5949;40.386;18.150;2022-07-23T01:04:01;0.10;;;0.10;;
11783;SDS011;5949;40.386;18.150;2022-07-23T01:06:29;0.10;;;0.10;;
11783;SDS011;5949;40.386;18.150;2022-07-23T01:09:02;0.00;;;0.00;;
11783;SDS011;5949;40.386;18.150;2022-07-23T01:11:31;0.10;;;0.10;;
11783;SDS011;5949;40.386;18.150;2022-07-23T01:13:59;0.10;;;0.10;;
11783;SDS011;5949;40.386;18.150;2022-07-23T01:16:34;0.10;;;0.10;;
11783;SDS011;5949;40.386;18.150;2022-07-23T01:19:02;0.10;;;0.10;;
11783;SDS011;5949;40.386;18.150;2022-07-23T01:21:32;0.10;;;0.10;;
11783;SDS011;5949;40.386;18.150;2022-07-23T01:24:03;0.00;;;0.00;;
11783;SDS011;5949;40.386;18.150;2022-07-23T01:26:32;0.10;;;0.10;;
11783;SDS011;5949;40.386;18.150;2022-07-23T01:28:59;0.00;;;0.00;;
11783;SDS011;5949;40.386;18.150;2022-07-23T01:31:27;0.10;;;0.10;;
11783;SDS011;5949;40.386;18.150;2022-07-23T01:33:55;0.10;;;0.10;;
11783;SDS011;5949;40.386;18.150;2022-07-23T01:36:22;0.10;;;0.10;;
11783;SDS011;5949;40.386;18.150;2022-07-23T01:38:51;0.30;;;0.30;;
11783;SDS011;5949;40.386;18.150;2022-07-23T01:41:20;0.10;;;0.10;;
11783;SDS011;5949;40.386;18.150;2022-07-23T01:43:48;0.10;;;0.10;;
11783;SDS011;5949;40.386;18.150;2022-07-23T01:46:15;0.07;;;0.07;;
11783;SDS011;5949;40.386;18.150;2022-07-23T01:48:43;0.10;;;0.10;;
11783;SDS011;5949;40.386;18.150;2022-07-23T01:51:11;0.00;;;0.00;;
11783;SDS011;5949;40.386;18.150;2022-07-23T01:53:38;0.13;;;0.13;;
11783;SDS011;5949;40.386;18.150;2022-07-23T01:56:06;0.00;;;0.00;;
11783;SDS011;5949;40.386;18.150;2022-07-23T01:58:35;4.03;;;0.50;;
11783;SDS011;5949;40.386;18.150;2022-07-23T02:01:03;0.10;;;0.10;;
11783;SDS011;5949;40.386;18.150;2022-07-23T02:03:30;0.00;;;0.00;;
11783;SDS011;5949;40.386;18.150;2022-07-23T02:05:58;0.00;;;0.00;;
11783;SDS011;5949;40.386;18.150;2022-07-23T02:08:26;0.00;;;0.00;;
11783;SDS011;5949;40.386;18.150;2022-07-23T02:10:53;0.10;;;0.10;;
11783;SDS011;5949;40.386;18.150;2022-07-23T02:13:21;0.10;;;0.10;;
11783;SDS011;5949;40.386;18.150;2022-07-23T02:15:50;0.10;;;0.10;;
11783;SDS011;5949;40.386;18.150;2022-07-23T02:18:17;0.20;;;0.20;;
11783;SDS011;5949;40.386;18.150;2022-07-23T02:20:45;0.20;;;0.20;;
11783;SDS011;5949;40.386;18.150;2022-07-23T02:23:12;0.00;;;0.00;;
11783;SDS011;5949;40.386;18.150;2022-07-23T02:25:40;0.10;;;0.10;;
11783;SDS011;5949;40.386;18.150;2022-07-23T02:28:08;0.10;;;0.10;;
11783;SDS011;5949;40.386;18.150;2022-07-23T02:30:35;0.10;;;0.10;;
11783;SDS011;5949;40.386;18.150;2022-07-23T02:33:06;0.10;;;0.10;;
11783;SDS011;5949;40.386;18.150;2022-07-23T02:35:33;0.43;;;0.43;;
11783;SDS011;5949;40.386;18.150;2022-07-23T02:38:01;0.07;;;0.07;;
11783;SDS011;5949;40.386;18.150;2022-07-23T02:40:29;0.10;;;0.10;;
11783;SDS011;5949;40.386;18.150;2022-07-23T02:42:56;0.20;;;0.20;;
11783;SDS011;5949;40.386;18.150;2022-07-23T02:45:24;0.00;;;0.00;;
11783;SDS011;5949;40.386;18.150;2022-07-23T02:47:52;0.73;;;0.73;;
11783;SDS011;5949;40.386;18.150;2022-07-23T02:50:21;0.10;;;0.10;;
11783;SDS011;5949;40.386;18.150;2022-07-23T02:52:48;0.10;;;0.10;;
11783;SDS011;5949;40.386;18.150;2022-07-23T02:55:16;0.23;;;0.23;;
11783;SDS011;5949;40.386;18.150;2022-07-23T02:57:44;0.10;;;0.10;;
11783;SDS011;5949;40.386;18.150;2022-07-23T03:00:12;0.00;;;0.00;;
11783;SDS011;5949;40.386;18.150;2022-07-23T03:02:39;0.10;;;0.10;;
11783;SDS011;5949;40.386;18.150;2022-07-23T03:05:08;0.03;;;0.03;;
11783;SDS011;5949;40.386;18.150;2022-07-23T03:07:37;0.00;;;0.00;;
11783;SDS011;5949;40.386;18.150;2022-07-23T03:10:04;0.10;;;0.10;;
11783;SDS011;5949;40.386;18.150;2022-07-23T03:12:32;1.40;;;0.20;;
11783;SDS011;5949;40.386;18.150;2022-07-23T03:15:00;0.03;;;0.03;;
11783;SDS011;5949;40.386;18.150;2022-07-23T03:17:28;0.10;;;0.10;;
11783;SDS011;5949;40.386;18.150;2022-07-23T03:19:55;0.10;;;0.10;;
11783;SDS011;5949;40.386;18.150;2022-07-23T03:22:23;0.27;;;0.27;;
11783;SDS011;5949;40.386;18.150;2022-07-23T03:24:52;0.10;;;0.10;;
11783;SDS011;5949;40.386;18.150;2022-07-23T03:27:22;0.00;;;0.00;;
11783;SDS011;5949;40.386;18.150;2022-07-23T03:29:52;0.00;;;0.00;;
11783;SDS011;5949;40.386;18.150;2022-07-23T03:32:21;0.07;;;0.07;;
11783;SDS011;5949;40.386;18.150;2022-07-23T03:34:49;0.00;;;0.00;;
11783;SDS011;5949;40.386;18.150;2022-07-23T03:37:17;0.10;;;0.10;;
11783;SDS011;5949;40.386;18.150;2022-07-23T03:39:45;0.20;;;0.20;;
11783;SDS011;5949;40.386;18.150;2022-07-23T03:42:14;0.10;;;0.10;;
11783;SDS011;5949;40.386;18.150;2022-07-23T03:44:42;0.10;;;0.10;;
11783;SDS011;5949;40.386;18.150;2022-07-23T03:47:10;0.07;;;0.07;;
11783;SDS011;5949;40.386;18.150;2022-07-23T03:49:37;0.00;;;0.00;;
11783;SDS011;5949;40.386;18.150;2022-07-23T03:52:05;0.10;;;0.10;;
11783;SDS011;5949;40.386;18.150;2022-07-23T03:54:33;0.03;;;0.03;;
11783;SDS011;5949;40.386;18.150;2022-07-23T03:57:00;0.10;;;0.10;;
11783;SDS011;5949;40.386;18.150;2022-07-23T03:59:29;0.13;;;0.13;;
11783;SDS011;5949;40.386;18.150;2022-07-23T04:01:57;0.10;;;0.10;;
11783;SDS011;5949;40.386;18.150;2022-07-23T04:04:24;0.13;;;0.13;;
11783;SDS011;5949;40.386;18.150;2022-07-23T04:06:52;0.30;;;0.30;;
11783;SDS011;5949;40.386;18.150;2022-07-23T04:09:19;0.03;;;0.03;;
11783;SDS011;5949;40.386;18.150;2022-07-23T04:11:47;0.10;;;0.10;;
11783;SDS011;5949;40.386;18.150;2022-07-23T04:14:14;0.00;;;0.00;;
11783;SDS011;5949;40.386;18.150;2022-07-23T04:16:43;0.00;;;0.00;;
11783;SDS011;5949;40.386;18.150;2022-07-23T04:19:11;0.10;;;0.10;;
11783;SDS011;5949;40.386;18.150;2022-07-23T04:21:39;1.30;;;0.50;;
11783;SDS011;5949;40.386;18.150;2022-07-23T04:24:06;0.10;;;0.10;;
11783;SDS011;5949;40.386;18.150;2022-07-23T04:26:34;0.00;;;0.00;;
11783;SDS011;5949;40.386;18.150;2022-07-23T04:29:01;0.13;;;0.13;;
11783;SDS011;5949;40.386;18.150;2022-07-23T04:31:29;0.10;;;0.10;;
11783;SDS011;5949;40.386;18.150;2022-07-23T04:33:58;0.10;;;0.10;;
11783;SDS011;5949;40.386;18.150;2022-07-23T04:36:25;0.00;;;0.00;;
11783;SDS011;5949;40.386;18.150;2022-07-23T04:38:53;0.10;;;0.10;;
11783;SDS011;5949;40.386;18.150;2022-07-23T04:41:20;0.10;;;0.10;;
11783;SDS011;5949;40.386;18.150;2022-07-23T04:43:48;0.47;;;0.47;;
11783;SDS011;5949;40.386;18.150;2022-07-23T04:46:15;0.50;;;0.50;;
11783;SDS011;5949;40.386;18.150;2022-07-23T04:48:43;0.00;;;0.00;;
11783;SDS011;5949;40.386;18.150;2022-07-23T04:51:12;0.23;;;0.23;;
11783;SDS011;5949;40.386;18.150;2022-07-23T04:53:39;0.10;;;0.10;;
11783;SDS011;5949;40.386;18.150;2022-07-23T04:56:07;0.10;;;0.10;;
11783;SDS011;5949;40.386;18.150;2022-07-23T04:58:34;0.03;;;0.03;;
11783;SDS011;5949;40.386;18.150;2022-07-23T05:01:02;0.13;;;0.13;;
11783;SDS011;5949;40.386;18.150;2022-07-23T05:03:30;0.10;;;0.10;;
11783;SDS011;5949;40.386;18.150;2022-07-23T05:05:57;0.03;;;0.03;;
11783;SDS011;5949;40.386;18.150;2022-07-23T05:08:28;0.00;;;0.00;;
11783;SDS011;5949;40.386;18.150;2022-07-23T05:10:56;0.00;;;0.00;;
11783;SDS011;5949;40.386;18.150;2022-07-23T05:13:24;0.10;;;0.10;;
11783;SDS011;5949;40.386;18.150;2022-07-23T05:15:51;0.00;;;0.00;;
11783;SDS011;5949;40.386;18.150;2022-07-23T05:18:19;0.10;;;0.10;;
11783;SDS011;5949;40.386;18.150;2022-07-23T05:20:46;0.20;;;0.20;;
11783;SDS011;5949;40.386;18.150;2022-07-23T05:23:14;0.03;;;0.03;;
11783;SDS011;5949;40.386;18.150;2022-07-23T05:25:43;0.00;;;0.00;;
11783;SDS011;5949;40.386;18.150;2022-07-23T05:28:11;0.10;;;0.10;;
11783;SDS011;5949;40.386;18.150;2022-07-23T05:30:38;0.10;;;0.10;;
11783;SDS011;5949;40.386;18.150;2022-07-23T05:33:06;0.30;;;0.30;;
11783;SDS011;5949;40.386;18.150;2022-07-23T05:35:34;0.10;;;0.10;;
11783;SDS011;5949;40.386;18.150;2022-07-23T05:38:01;1.07;;;1.07;;
11783;SDS011;5949;40.386;18.150;2022-07-23T05:40:29;0.17;;;0.17;;
11783;SDS011;5949;40.386;18.150;2022-07-23T05:42:59;0.07;;;0.07;;
11783;SDS011;5949;40.386;18.150;2022-07-23T05:45:27;0.17;;;0.17;;
11783;SDS011;5949;40.386;18.150;2022-07-23T05:47:54;0.13;;;0.13;;
11783;SDS011;5949;40.386;18.150;2022-07-23T05:50:22;0.30;;;0.30;;
11783;SDS011;5949;40.386;18.150;2022-07-23T05:52:50;0.20;;;0.20;;
11783;SDS011;5949;40.386;18.150;2022-07-23T05:55:17;0.10;;;0.10;;
11783;SDS011;5949;40.386;18.150;2022-07-23T05:57:45;17.63;;;3.42;;
11783;SDS011;5949;40.386;18.150;2022-07-23T06:00:14;0.05;;;0.05;;
11783;SDS011;5949;40.386;18.150;2022-07-23T06:02:42;0.10;;;0.10;;
11783;SDS011;5949;40.386;18.150;2022-07-23T06:05:10;0.10;;;0.10;;
11783;SDS011;5949;40.386;18.150;2022-07-23T06:07:37;0.00;;;0.00;;
11783;SDS011;5949;40.386;18.150;2022-07-23T06:10:05;0.30;;;0.30;;
11783;SDS011;5949;40.386;18.150;2022-07-23T06:12:34;0.40;;;0.40;;
11783;SDS011;5949;40.386;18.150;2022-07-23T06:15:02;0.10;;;0.10;;
11783;SDS011;5949;40.386;18.150;2022-07-23T06:17:32;0.28;;;0.28;;
11783;SDS011;5949;40.386;18.150;2022-07-23T06:19:59;0.10;;;0.10;;
11783;SDS011;5949;40.386;18.150;2022-07-23T06:22:27;0.22;;;0.22;;
11783;SDS011;5949;40.386;18.150;2022-07-23T06:24:54;0.30;;;0.30;;
11783;SDS011;5949;40.386;18.150;2022-07-23T06:27:22;0.10;;;0.10;;
11783;SDS011;5949;40.386;18.150;2022-07-23T06:29:50;0.10;;;0.10;;
11783;SDS011;5949;40.386;18.150;2022-07-23T06:32:17;0.10;;;0.10;;
11783;SDS011;5949;40.386;18.150;2022-07-23T06:34:46;0.20;;;0.20;;
11783;SDS011;5949;40.386;18.150;2022-07-23T06:37:14;0.00;;;0.00;;
11783;SDS011;5949;40.386;18.150;2022-07-23T06:39:42;0.00;;;0.00;;
11783;SDS011;5949;40.386;18.150;2022-07-23T06:42:09;0.10;;;0.10;;
11783;SDS011;5949;40.386;18.150;2022-07-23T06:44:37;0.10;;;0.10;;
11783;SDS011;5949;40.386;18.150;2022-07-23T06:47:05;0.10;;;0.10;;
11783;SDS011;5949;40.386;18.150;2022-07-23T06:49:33;0.00;;;0.00;;
11783;SDS011;5949;40.386;18.150;2022-07-23T06:52:02;0.00;;;0.00;;
11783;SDS011;5949;40.386;18.150;2022-07-23T06:54:29;0.20;;;0.20;;
11783;SDS011;5949;40.386;18.150;2022-07-23T06:56:57;0.10;;;0.10;;
11783;SDS011;5949;40.386;18.150;2022-07-23T06:59:25;0.30;;;0.30;;
11783;SDS011;5949;40.386;18.150;2022-07-23T07:01:52;0.80;;;0.63;;
11783;SDS011;5949;40.386;18.150;2022-07-23T07:04:20;0.10;;;0.10;;
11783;SDS011;5949;40.386;18.150;2022-07-23T07:06:47;0.08;;;0.08;;
11783;SDS011;5949;40.386;18.150;2022-07-23T07:09:17;0.10;;;0.10;;
11783;SDS011;5949;40.386;18.150;2022-07-23T07:11:44;0.03;;;0.03;;
11783;SDS011;5949;40.386;18.150;2022-07-23T07:14:12;0.10;;;0.10;;
11783;SDS011;5949;40.386;18.150;2022-07-23T07:16:39;0.10;;;0.10;;
11783;SDS011;5949;40.386;18.150;2022-07-23T07:19:07;0.10;;;0.10;;
11783;SDS011;5949;40.386;18.150;2022-07-23T07:21:35;0.10;;;0.10;;
11783;SDS011;5949;40.386;18.150;2022-07-23T07:24:03;0.10;;;0.10;;
11783;SDS011;5949;40.386;18.150;2022-07-23T07:26:33;0.55;;;0.55;;
11783;SDS011;5949;40.386;18.150;2022-07-23T07:29:01;0.00;;;0.00;;
11783;SDS011;5949;40.386;18.150;2022-07-23T07:31:28;0.00;;;0.00;;
11783;SDS011;5949;40.386;18.150;2022-07-23T07:33:56;0.25;;;0.25;;
11783;SDS011;5949;40.386;18.150;2022-07-23T07:36:24;0.10;;;0.10;;
11783;SDS011;5949;40.386;18.150;2022-07-23T07:38:52;0.03;;;0.03;;
11783;SDS011;5949;40.386;18.150;2022-07-23T07:41:19;0.00;;;0.00;;
11783;SDS011;5949;40.386;18.150;2022-07-23T07:43:50;0.00;;;0.00;;
11783;SDS011;5949;40.386;18.150;2022-07-23T07:46:18;0.20;;;0.20;;
11783;SDS011;5949;40.386;18.150;2022-07-23T07:48:46;0.00;;;0.00;;
11783;SDS011;5949;40.386;18.150;2022-07-23T07:51:13;0.03;;;0.03;;
11783;SDS011;5949;40.386;18.150;2022-07-23T07:53:41;0.10;;;0.10;;
11783;SDS011;5949;40.386;18.150;2022-07-23T07:56:09;0.00;;;0.00;;
11783;SDS011;5949;40.386;18.150;2022-07-23T07:58:36;0.08;;;0.08;;
11783;SDS011;5949;40.386;18.150;2022-07-23T08:01:05;0.00;;;0.00;;
11783;SDS011;5949;40.386;18.150;2022-07-23T08:03:33;0.10;;;0.10;;
11783;SDS011;5949;40.386;18.150;2022-07-23T08:06:01;0.10;;;0.10;;
11783;SDS011;5949;40.386;18.150;2022-07-23T08:08:28;0.10;;;0.10;;
11783;SDS011;5949;40.386;18.150;2022-07-23T08:10:56;0.15;;;0.15;;
11783;SDS011;5949;40.386;18.150;2022-07-23T08:13:24;0.00;;;0.00;;
11783;SDS011;5949;40.386;18.150;2022-07-23T08:15:51;0.20;;;0.20;;
11783;SDS011;5949;40.386;18.150;2022-07-23T08:18:21;0.00;;;0.00;;
11783;SDS011;5949;40.386;18.150;2022-07-23T08:20:48;0.00;;;0.00;;
11783;SDS011;5949;40.386;18.150;2022-07-23T08:23:16;0.10;;;0.10;;
11783;SDS011;5949;40.386;18.150;2022-07-23T08:25:45;0.10;;;0.10;;
11783;SDS011;5949;40.386;18.150;2022-07-23T08:28:13;0.05;;;0.05;;
11783;SDS011;5949;40.386;18.150;2022-07-23T08:30:42;0.08;;;0.08;;
11783;SDS011;5949;40.386;18.150;2022-07-23T08:33:11;0.10;;;0.10;;
11783;SDS011;5949;40.386;18.150;2022-07-23T08:35:41;0.10;;;0.10;;
11783;SDS011;5949;40.386;18.150;2022-07-23T08:38:12;0.15;;;0.15;;
11783;SDS011;5949;40.386;18.150;2022-07-23T08:40:42;0.10;;;0.10;;
11783;SDS011;5949;40.386;18.150;2022-07-23T08:43:12;0.10;;;0.10;;
11783;SDS011;5949;40.386;18.150;2022-07-23T08:45:42;0.10;;;0.10;;
11783;SDS011;5949;40.386;18.150;2022-07-23T08:48:12;0.00;;;0.00;;
11783;SDS011;5949;40.386;18.150;2022-07-23T08:50:43;0.00;;;0.00;;
11783;SDS011;5949;40.386;18.150;2022-07-23T08:53:12;0.10;;;0.10;;
11783;SDS011;5949;40.386;18.150;2022-07-23T08:55:40;0.00;;;0.00;;
11783;SDS011;5949;40.386;18.150;2022-07-23T08:58:11;0.10;;;0.10;;
11783;SDS011;5949;40.386;18.150;2022-07-23T09:00:39;0.10;;;0.10;;
11783;SDS011;5949;40.386;18.150;2022-07-23T09:03:07;0.10;;;0.10;;
11783;SDS011;5949;40.386;18.150;2022-07-23T09:05:38;0.00;;;0.00;;
11783;SDS011;5949;40.386;18.150;2022-07-23T09:08:08;0.10;;;0.10;;
11783;SDS011;5949;40.386;18.150;2022-07-23T09:10:42;0.03;;;0.03;;
11783;SDS011;5949;40.386;18.150;2022-07-23T09:13:24;0.00;;;0.00;;
11783;SDS011;5949;40.386;18.150;2022-07-23T09:15:54;0.65;;;0.65;;
11783;SDS011;5949;40.386;18.150;2022-07-23T09:18:34;0.10;;;0.10;;
11783;SDS011;5949;40.386;18.150;2022-07-23T09:21:08;0.10;;;0.10;;
11783;SDS011;5949;40.386;18.150;2022-07-23T09:23:42;0.10;;;0.10;;
11783;SDS011;5949;40.386;18.150;2022-07-23T09:26:22;0.10;;;0.10;;
11783;SDS011;5949;40.386;18.150;2022-07-23T09:28:58;0.00;;;0.00;;
11783;SDS011;5949;40.386;18.150;2022-07-23T09:31:31;0.10;;;0.10;;
11783;SDS011;5949;40.386;18.150;2022-07-23T09:34:08;0.60;;;0.60;;
11783;SDS011;5949;40.386;18.150;2022-07-23T09:36:37;0.10;;;0.10;;
11783;SDS011;5949;40.386;18.150;2022-07-23T09:39:07;0.10;;;0.10;;
11783;SDS011;5949;40.386;18.150;2022-07-23T09:41:36;0.03;;;0.03;;
11783;SDS011;5949;40.386;18.150;2022-07-23T09:44:11;0.20;;;0.20;;
11783;SDS011;5949;40.386;18.150;2022-07-23T09:46:41;0.10;;;0.10;;
11783;SDS011;5949;40.386;18.150;2022-07-23T09:49:11;0.10;;;0.10;;
11783;SDS011;5949;40.386;18.150;2022-07-23T09:51:43;0.00;;;0.00;;
11783;SDS011;5949;40.386;18.150;2022-07-23T09:54:30;0.10;;;0.10;;
11783;SDS011;5949;40.386;18.150;2022-07-23T09:57:00;0.10;;;0.10;;
11783;SDS011;5949;40.386;18.150;2022-07-23T09:59:31;0.30;;;0.30;;
11783;SDS011;5949;40.386;18.150;2022-07-23T10:02:00;0.10;;;0.10;;
11783;SDS011;5949;40.386;18.150;2022-07-23T10:04:29;0.10;;;0.10;;
11783;SDS011;5949;40.386;18.150;2022-07-23T10:06:58;0.10;;;0.10;;
11783;SDS011;5949;40.386;18.150;2022-07-23T10:09:27;0.10;;;0.10;;
11783;SDS011;5949;40.386;18.150;2022-07-23T10:11:58;0.10;;;0.10;;
11783;SDS011;5949;40.386;18.150;2022-07-23T10:14:44;0.13;;;0.13;;
11783;SDS011;5949;40.386;18.150;2022-07-23T10:17:12;0.10;;;0.10;;
11783;SDS011;5949;40.386;18.150;2022-07-23T10:19:39;0.10;;;0.10;;
11783;SDS011;5949;40.386;18.150;2022-07-23T10:22:11;0.10;;;0.10;;
11783;SDS011;5949;40.386;18.150;2022-07-23T10:24:47;0.10;;;0.10;;
11783;SDS011;5949;40.386;18.150;2022-07-23T10:27:38;0.10;;;0.10;;
11783;SDS011;5949;40.386;18.150;2022-07-23T10:30:21;0.13;;;0.13;;
11783;SDS011;5949;40.386;18.150;2022-07-23T10:32:58;0.10;;;0.10;;
11783;SDS011;5949;40.386;18.150;2022-07-23T10:35:46;0.10;;;0.10;;
11783;SDS011;5949;40.386;18.150;2022-07-23T10:38:19;0.10;;;0.10;;
11783;SDS011;5949;40.386;18.150;2022-07-23T10:40:54;0.00;;;0.00;;
11783;SDS011;5949;40.386;18.150;2022-07-23T10:43:24;0.10;;;0.10;;
11783;SDS011;5949;40.386;18.150;2022-07-23T10:45:52;0.30;;;0.30;;
11783;SDS011;5949;40.386;18.150;2022-07-23T10:48:21;0.10;;;0.10;;
11783;SDS011;5949;40.386;18.150;2022-07-23T10:51:07;0.10;;;0.10;;
11783;SDS011;5949;40.386;18.150;2022-07-23T11:02:38;0.10;;;0.10;;
11783;SDS011;5949;40.386;18.150;2022-07-23T11:05:08;0.10;;;0.10;;
11783;SDS011;5949;40.386;18.150;2022-07-23T11:07:36;0.10;;;0.10;;
11783;SDS011;5949;40.386;18.150;2022-07-23T11:10:37;0.10;;;0.10;;
11783;SDS011;5949;40.386;18.150;2022-07-23T11:16:23;0.10;;;0.10;;
11783;SDS011;5949;40.386;18.150;2022-07-23T11:18:56;0.10;;;0.10;;
11783;SDS011;5949;40.386;18.150;2022-07-23T11:21:42;0.10;;;0.10;;
11783;SDS011;5949;40.386;18.150;2022-07-23T11:24:15;0.10;;;0.10;;
11783;SDS011;5949;40.386;18.150;2022-07-23T11:26:44;0.10;;;0.10;;
11783;SDS011;5949;40.386;18.150;2022-07-23T11:32:17;0.10;;;0.10;;
11783;SDS011;5949;40.386;18.150;2022-07-23T11:34:56;0.10;;;0.10;;
11783;SDS011;5949;40.386;18.150;2022-07-23T11:37:28;0.10;;;0.10;;
11783;SDS011;5949;40.386;18.150;2022-07-23T11:39:58;0.10;;;0.10;;
11783;SDS011;5949;40.386;18.150;2022-07-23T11:42:26;0.10;;;0.10;;
11783;SDS011;5949;40.386;18.150;2022-07-23T11:44:54;0.00;;;0.00;;
11783;SDS011;5949;40.386;18.150;2022-07-23T11:47:23;0.10;;;0.10;;
11783;SDS011;5949;40.386;18.150;2022-07-23T11:49:52;0.10;;;0.10;;
11783;SDS011;5949;40.386;18.150;2022-07-23T11:52:20;0.10;;;0.10;;
11783;SDS011;5949;40.386;18.150;2022-07-23T11:54:49;0.00;;;0.00;;
11783;SDS011;5949;40.386;18.150;2022-07-23T11:57:18;0.10;;;0.10;;
11783;SDS011;5949;40.386;18.150;2022-07-23T11:59:47;0.10;;;0.10;;
11783;SDS011;5949;40.386;18.150;2022-07-23T12:02:18;0.15;;;0.15;;
11783;SDS011;5949;40.386;18.150;2022-07-23T12:04:50;0.20;;;0.20;;
11783;SDS011;5949;40.386;18.150;2022-07-23T12:07:25;0.10;;;0.10;;
11783;SDS011;5949;40.386;18.150;2022-07-23T12:09:54;0.10;;;0.10;;
11783;SDS011;5949;40.386;18.150;2022-07-23T12:12:23;1.80;;;0.57;;
11783;SDS011;5949;40.386;18.150;2022-07-23T12:14:51;0.10;;;0.10;;
11783;SDS011;5949;40.386;18.150;2022-07-23T12:17:20;0.10;;;0.10;;
11783;SDS011;5949;40.386;18.150;2022-07-23T12:19:55;0.10;;;0.10;;
11783;SDS011;5949;40.386;18.150;2022-07-23T12:22:23;0.00;;;0.00;;
11783;SDS011;5949;40.386;18.150;2022-07-23T12:24:53;0.10;;;0.10;;
11783;SDS011;5949;40.386;18.150;2022-07-23T12:27:21;0.10;;;0.10;;
11783;SDS011;5949;40.386;18.150;2022-07-23T12:29:50;0.10;;;0.10;;
11783;SDS011;5949;40.386;18.150;2022-07-23T12:32:18;0.85;;;0.85;;
11783;SDS011;5949;40.386;18.150;2022-07-23T12:34:51;0.50;;;0.50;;
11783;SDS011;5949;40.386;18.150;2022-07-23T12:37:33;0.75;;;0.75;;
11783;SDS011;5949;40.386;18.150;2022-07-23T12:40:20;0.10;;;0.10;;
11783;SDS011;5949;40.386;18.150;2022-07-23T12:42:50;0.22;;;0.22;;
11783;SDS011;5949;40.386;18.150;2022-07-23T12:45:20;0.13;;;0.13;;
11783;SDS011;5949;40.386;18.150;2022-07-23T12:47:51;2.72;;;1.85;;
11783;SDS011;5949;40.386;18.150;2022-07-23T12:53:26;0.63;;;0.63;;
11783;SDS011;5949;40.386;18.150;2022-07-23T12:55:59;1.52;;;1.42;;
11783;SDS011;5949;40.386;18.150;2022-07-23T12:58:39;1.60;;;1.60;;
11783;SDS011;5949;40.386;18.150;2022-07-23T13:01:09;4.50;;;4.10;;
11783;SDS011;5949;40.386;18.150;2022-07-23T13:03:54;1.38;;;1.38;;
11783;SDS011;5949;40.386;18.150;2022-07-23T13:06:28;1.60;;;1.50;;
11783;SDS011;5949;40.386;18.150;2022-07-23T13:08:58;2.35;;;2.28;;
11783;SDS011;5949;40.386;18.150;2022-07-23T13:11:26;5.30;;;3.55;;
11783;SDS011;5949;40.386;18.150;2022-07-23T13:13:54;6.20;;;3.75;;
11783;SDS011;5949;40.386;18.150;2022-07-23T13:16:21;1.33;;;1.33;;
11783;SDS011;5949;40.386;18.150;2022-07-23T13:18:49;2.33;;;2.13;;
11783;SDS011;5949;40.386;18.150;2022-07-23T13:21:17;2.67;;;2.58;;
11783;SDS011;5949;40.386;18.150;2022-07-23T13:23:46;2.63;;;2.53;;
11783;SDS011;5949;40.386;18.150;2022-07-23T13:26:14;4.75;;;3.25;;
11783;SDS011;5949;40.386;18.150;2022-07-23T13:28:41;2.85;;;2.75;;
11783;SDS011;5949;40.386;18.150;2022-07-23T13:31:09;1.75;;;1.67;;
11783;SDS011;5949;40.386;18.150;2022-07-23T13:33:37;3.00;;;1.38;;
11783;SDS011;5949;40.386;18.150;2022-07-23T13:36:05;0.95;;;0.95;;
11783;SDS011;5949;40.386;18.150;2022-07-23T13:38:33;1.10;;;1.10;;
11783;SDS011;5949;40.386;18.150;2022-07-23T13:41:02;2.60;;;1.90;;
11783;SDS011;5949;40.386;18.150;2022-07-23T13:43:30;0.60;;;0.60;;
11783;SDS011;5949;40.386;18.150;2022-07-23T13:45:58;0.32;;;0.32;;
11783;SDS011;5949;40.386;18.150;2022-07-23T13:48:25;3.10;;;1.75;;
11783;SDS011;5949;40.386;18.150;2022-07-23T13:50:54;10.25;;;2.08;;
11783;SDS011;5949;40.386;18.150;2022-07-23T13:53:22;0.38;;;0.38;;
11783;SDS011;5949;40.386;18.150;2022-07-23T13:55:51;0.60;;;0.60;;
11783;SDS011;5949;40.386;18.150;2022-07-23T13:58:21;1.23;;;1.23;;
11783;SDS011;5949;40.386;18.150;2022-07-23T14:00:50;1.27;;;1.27;;
11783;SDS011;5949;40.386;18.150;2022-07-23T14:03:19;0.60;;;0.60;;
11783;SDS011;5949;40.386;18.150;2022-07-23T14:05:49;0.82;;;0.82;;
11783;SDS011;5949;40.386;18.150;2022-07-23T14:08:17;0.50;;;0.50;;
11783;SDS011;5949;40.386;18.150;2022-07-23T14:10:44;1.58;;;1.58;;
11783;SDS011;5949;40.386;18.150;2022-07-23T14:13:12;1.23;;;1.23;;
11783;SDS011;5949;40.386;18.150;2022-07-23T14:15:42;0.65;;;0.65;;
11783;SDS011;5949;40.386;18.150;2022-07-23T14:18:09;1.77;;;0.90;;
11783;SDS011;5949;40.386;18.150;2022-07-23T14:20:37;0.98;;;0.95;;
11783;SDS011;5949;40.386;18.150;2022-07-23T14:23:05;1.77;;;1.67;;
11783;SDS011;5949;40.386;18.150;2022-07-23T14:25:32;0.20;;;0.20;;
11783;SDS011;5949;40.386;18.150;2022-07-23T14:28:00;0.30;;;0.30;;
11783;SDS011;5949;40.386;18.150;2022-07-23T14:30:28;0.32;;;0.32;;
11783;SDS011;5949;40.386;18.150;2022-07-23T14:32:57;2.30;;;2.20;;
11783;SDS011;5949;40.386;18.150;2022-07-23T14:35:24;0.75;;;0.75;;
11783;SDS011;5949;40.386;18.150;2022-07-23T14:37:52;0.28;;;0.28;;
11783;SDS011;5949;40.386;18.150;2022-07-23T14:40:20;0.30;;;0.30;;
11783;SDS011;5949;40.386;18.150;2022-07-23T14:42:48;0.32;;;0.32;;
11783;SDS011;5949;40.386;18.150;2022-07-23T14:45:16;0.68;;;0.43;;
11783;SDS011;5949;40.386;18.150;2022-07-23T14:47:44;0.10;;;0.10;;
11783;SDS011;5949;40.386;18.150;2022-07-23T14:50:13;0.00;;;0.00;;
11783;SDS011;5949;40.386;18.150;2022-07-23T14:52:41;0.25;;;0.25;;
11783;SDS011;5949;40.386;18.150;2022-07-23T14:55:08;0.10;;;0.10;;
11783;SDS011;5949;40.386;18.150;2022-07-23T14:57:36;0.65;;;0.65;;
11783;SDS011;5949;40.386;18.150;2022-07-23T15:00:04;0.10;;;0.10;;
11783;SDS011;5949;40.386;18.150;2022-07-23T15:02:33;0.10;;;0.10;;
11783;SDS011;5949;40.386;18.150;2022-07-23T15:05:00;0.10;;;0.10;;
11783;SDS011;5949;40.386;18.150;2022-07-23T15:07:29;0.00;;;0.00;;
11783;SDS011;5949;40.386;18.150;2022-07-23T15:09:57;0.10;;;0.10;;
11783;SDS011;5949;40.386;18.150;2022-07-23T15:12:38;0.10;;;0.10;;
11783;SDS011;5949;40.386;18.150;2022-07-23T15:15:06;0.10;;;0.10;;
11783;SDS011;5949;40.386;18.150;2022-07-23T15:17:34;0.45;;;0.45;;
11783;SDS011;5949;40.386;18.150;2022-07-23T15:20:01;0.10;;;0.10;;